createdAt,value
2023-04-07T00:22:12.124Z,95954.75
2023-04-07T00:27:46.258Z,95892.78
2023-04-07T00:34:23.892Z,95865.78
2023-04-07T00:39:00.939Z,95905.13
2023-04-07T00:44:25.121Z,95873.59
2023-04-07T01:01:59.653Z,95919.41
2023-04-07T01:14:31.904Z,95866.53
2023-04-07T01:26:58.194Z,95867.56
2023-04-07T01:32:45.038Z,95863.66
2023-04-07T01:38:32.203Z,95859.19
2023-04-07T01:57:14.718Z,95883.94
2023-04-07T02:22:14.965Z,95924.47
2023-04-07T02:51:36.140Z,95937.16
2023-04-07T03:03:18.195Z,95877.50
2023-04-07T03:09:39.297Z,95849.66
2023-04-07T03:15:50.513Z,95935.22
2023-04-07T03:21:46.585Z,95950.56
2023-04-07T03:33:58.702Z,95949.34
2023-04-07T03:39:51.616Z,95872.47
2023-04-07T03:45:15.870Z,95877.50
2023-04-07T03:57:11.435Z,95921.53
2023-04-07T04:09:09.545Z,95924.69
2023-04-07T04:14:51.286Z,95909.81
2023-04-07T04:43:56.234Z,95948.94
2023-04-07T05:02:19.253Z,95992.00
2023-04-07T05:14:34.390Z,96001.13
2023-04-07T05:32:48.000Z,95953.47
2023-04-07T05:55:50.113Z,95932.25
2023-04-07T06:12:59.960Z,95954.56
2023-04-07T06:18:15.582Z,95915.81
2023-04-07T06:23:20.584Z,95917.97
2023-04-07T06:28:38.264Z,95951.88
2023-04-07T06:33:46.630Z,95943.13
2023-04-07T06:39:00.321Z,95934.13
2023-04-07T06:44:09.594Z,95962.91
2023-04-07T06:49:27.917Z,95955.28
2023-04-07T07:00:19.603Z,95981.47
2023-04-07T07:05:36.766Z,95947.56
2023-04-07T07:10:41.658Z,95992.47
2023-04-07T07:15:46.373Z,95989.56
2023-04-07T07:20:57.033Z,95974.22
2023-04-07T07:26:07.234Z,95959.94
2023-04-07T07:31:49.386Z,95945.56
2023-04-07T07:42:15.632Z,96001.94
2023-04-07T07:47:44.921Z,95985.41
2023-04-07T07:52:49.797Z,95944.47
2023-04-07T07:58:09.747Z,95969.38
2023-04-07T08:03:12.342Z,95994.81
2023-04-07T08:08:22.401Z,95984.31
2023-04-07T08:13:29.720Z,96012.34
2023-04-07T08:18:32.967Z,95975.47
2023-04-07T08:23:40.616Z,95987.81
2023-04-07T08:28:45.927Z,95976.25
2023-04-07T08:34:11.883Z,95930.56
2023-04-07T08:39:34.560Z,95997.16
2023-04-07T08:45:24.737Z,95932.88
2023-04-07T08:50:54.464Z,95919.59
2023-04-07T09:01:25.914Z,95971.38
2023-04-07T09:06:48.050Z,95961.41
2023-04-07T09:22:57.078Z,95949.91
2023-04-07T09:28:10.829Z,95992.66
2023-04-07T09:33:38.672Z,95986.16
2023-04-07T09:38:56.694Z,95954.97
2023-04-07T09:43:59.646Z,95950.19
2023-04-07T09:49:17.777Z,95924.31
2023-04-07T09:54:54.432Z,95950.81
2023-04-07T10:00:01.786Z,95960.66
2023-04-07T10:05:21.989Z,95984.03
2023-04-07T10:10:48.311Z,95950.22
2023-04-07T10:16:05.982Z,95984.56
2023-04-07T10:21:23.870Z,95986.06
2023-04-07T10:26:33.496Z,95957.13
2023-04-07T10:38:25.143Z,95963.25
2023-04-07T10:43:54.205Z,95907.34
2023-04-07T10:54:58.389Z,95998.88
2023-04-07T11:00:14.622Z,95988.38
2023-04-07T11:05:27.340Z,95956.69
2023-04-07T11:10:29.842Z,95955.63
2023-04-07T11:16:22.870Z,95983.00
2023-04-07T11:28:30.931Z,95953.13
2023-04-07T11:33:36.786Z,95984.94
2023-04-07T11:38:40.297Z,95945.53
2023-04-07T11:43:48.182Z,95998.38
2023-04-07T11:48:54.993Z,95952.38
2023-04-07T11:54:07.501Z,95978.72
2023-04-07T11:59:28.211Z,95935.59
2023-04-07T12:04:48.918Z,95944.59
2023-04-07T12:09:58.684Z,95971.81
2023-04-07T12:15:11.757Z,95960.63
2023-04-07T12:20:37.624Z,96024.06
2023-04-07T12:25:59.071Z,95980.22
2023-04-07T12:31:01.582Z,96008.00
2023-04-07T12:36:47.117Z,95985.72
2023-04-07T12:42:18.464Z,96033.69
2023-04-07T12:47:41.699Z,96017.06
2023-04-07T12:52:48.585Z,96053.56
2023-04-07T12:57:54.380Z,96058.13
2023-04-07T13:02:57.119Z,96064.38
2023-04-07T13:08:13.785Z,96083.19
2023-04-07T13:13:21.969Z,96074.09
2023-04-07T13:18:24.460Z,96093.94
2023-04-07T13:23:39.380Z,96079.75
2023-04-07T13:28:53.496Z,96113.19
2023-04-07T13:34:01.312Z,96083.41
2023-04-07T13:39:05.638Z,96107.28
2023-04-07T13:44:10.430Z,96121.19
2023-04-07T13:49:26.681Z,96111.41
2023-04-07T13:54:55.631Z,96106.94
2023-04-07T14:00:06.562Z,96135.34
2023-04-07T14:05:17.855Z,96112.69
2023-04-07T14:10:36.047Z,96117.81
2023-04-07T14:15:46.089Z,96097.88
2023-04-07T14:20:48.514Z,96125.94
2023-04-07T14:25:55.075Z,96142.22
2023-04-07T14:31:09.797Z,96117.03
2023-04-07T14:36:25.057Z,96151.38
2023-04-07T14:41:30.287Z,96118.75
2023-04-07T14:46:41.018Z,96115.41
2023-04-07T14:51:50.086Z,96136.44
2023-04-07T14:56:57.803Z,96141.16
2023-04-07T15:02:02.176Z,96138.50
2023-04-07T15:07:05.600Z,96151.13
2023-04-07T15:12:14.857Z,96132.97
2023-04-07T15:17:42.481Z,96167.03
2023-04-07T15:22:49.109Z,96138.91
2023-04-07T15:27:55.564Z,96168.78
2023-04-07T15:33:20.269Z,96141.00
2023-04-07T15:38:25.004Z,96172.78
2023-04-07T15:43:33.284Z,96155.78
2023-04-07T15:48:55.625Z,96168.94
2023-04-07T15:59:23.229Z,96224.75
2023-04-07T16:04:25.659Z,96231.16
2023-04-07T16:09:28.851Z,96202.00
2023-04-07T16:14:31.582Z,96209.50
2023-04-07T16:19:33.997Z,96200.31
2023-04-07T16:24:36.347Z,96234.16
2023-04-07T16:29:38.626Z,96239.25
2023-04-07T16:34:41.048Z,96240.94
2023-04-07T16:39:43.357Z,96256.28
2023-04-07T16:44:45.814Z,96253.97
2023-04-07T16:49:47.996Z,96290.25
2023-04-07T16:54:50.708Z,96269.50
2023-04-07T16:59:53.148Z,96284.09
2023-04-07T17:04:55.378Z,96294.44
2023-04-07T17:09:58.999Z,96307.34
2023-04-07T17:15:01.962Z,96304.88
2023-04-07T17:20:05.336Z,96310.78
2023-04-07T17:25:08.392Z,96302.66
2023-04-07T17:30:11.082Z,96335.34
2023-04-07T17:35:13.409Z,96357.63
2023-04-07T17:40:16.017Z,96352.78
2023-04-07T17:45:18.426Z,96361.06
2023-04-07T17:50:20.992Z,96352.72
2023-04-07T17:55:23.599Z,96395.31
2023-04-07T18:00:26.537Z,96356.63
2023-04-07T18:05:31.319Z,96397.94
2023-04-07T18:10:35.827Z,96391.00
2023-04-07T18:15:38.909Z,96401.44
2023-04-07T18:20:41.850Z,96376.16
2023-04-07T18:25:44.241Z,96378.63
2023-04-07T18:30:47.246Z,96430.97
2023-04-07T18:35:49.784Z,96440.50
2023-04-07T18:40:53.433Z,96441.16
2023-04-07T18:45:55.820Z,96416.47
2023-04-07T18:50:58.179Z,96419.09
2023-04-07T18:56:00.668Z,96419.88
2023-04-07T19:01:02.981Z,96437.50
2023-04-07T19:06:06.472Z,96424.59
2023-04-07T19:11:09.483Z,96410.94
2023-04-07T19:16:11.835Z,96441.72
2023-04-07T19:21:14.359Z,96432.03
2023-04-07T19:26:16.962Z,96447.09
2023-04-07T19:31:19.330Z,96466.66
2023-04-07T19:36:21.638Z,96425.88
2023-04-07T19:41:23.988Z,96441.97
2023-04-07T19:46:26.352Z,96465.56
2023-04-07T19:51:28.964Z,96441.97
2023-04-07T19:56:31.279Z,96455.66
2023-04-07T20:01:33.919Z,96452.38
2023-04-07T20:06:39.314Z,96442.94
2023-04-07T20:11:41.601Z,96449.13
2023-04-07T20:16:44.367Z,96463.91
2023-04-07T20:21:50.141Z,96438.34
2023-04-07T20:26:52.560Z,96412.56
2023-04-07T20:31:55.046Z,96462.63
2023-04-07T20:36:58.940Z,96389.28
2023-04-07T20:42:02.194Z,96443.78
2023-04-07T20:47:11.819Z,96415.06
2023-04-07T20:52:14.724Z,96396.59
2023-04-07T20:57:17.228Z,96423.13
2023-04-07T21:02:20.663Z,96417.50
2023-04-07T21:07:23.144Z,96426.84
2023-04-07T21:12:25.455Z,96427.03
2023-04-07T21:17:27.887Z,96414.78
2023-04-07T21:22:31.343Z,96408.88
2023-04-07T21:27:41.568Z,96411.81
2023-04-07T21:32:49.468Z,96462.06
2023-04-07T21:37:52.042Z,96450.84
2023-04-07T21:42:54.594Z,96429.72
2023-04-07T21:47:57.379Z,96385.81
2023-04-07T21:53:03.467Z,96417.31
2023-04-07T21:58:06.020Z,96396.03
2023-04-07T22:03:09.307Z,96392.09
2023-04-07T22:08:13.436Z,96361.25
2023-04-07T22:13:26.984Z,96394.00
2023-04-07T22:18:30.254Z,96375.34
2023-04-07T22:23:35.280Z,96420.28
2023-04-07T22:28:37.757Z,96396.50
2023-04-07T22:33:40.529Z,96385.97
2023-04-07T22:38:45.957Z,96386.72
2023-04-07T22:43:48.614Z,96434.47
2023-04-07T22:48:51.564Z,96361.28
2023-04-07T22:53:56.997Z,96404.66
2023-04-07T22:59:05.968Z,96365.44
2023-04-07T23:04:08.437Z,96418.75
2023-04-07T23:09:20.865Z,96403.78
2023-04-07T23:14:23.495Z,96391.84
2023-04-07T23:19:28.465Z,96391.75
2023-04-07T23:24:31.384Z,96399.97
2023-04-07T23:29:34.377Z,96440.75
2023-04-07T23:34:36.837Z,96391.22
2023-04-07T23:39:39.482Z,96437.53
2023-04-07T23:44:41.991Z,96410.63
2023-04-07T23:49:46.967Z,96402.47
2023-04-07T23:54:51.999Z,96370.00
2023-04-07T23:59:55.302Z,96389.66
